createdAt,value
2022-11-22T00:00:20.213Z,8.00
2022-11-22T00:01:20.357Z,6.80
2022-11-22T00:02:20.581Z,8.10
2022-11-22T00:03:20.981Z,6.90
2022-11-22T00:04:20.896Z,7.80
2022-11-22T00:05:21.081Z,8.00
2022-11-22T00:06:21.261Z,8.20
2022-11-22T00:07:21.452Z,8.20
2022-11-22T00:08:21.603Z,7.30
2022-11-22T00:09:21.773Z,8.40
2022-11-22T00:10:21.945Z,8.70
2022-11-22T00:11:22.123Z,7.50
2022-11-22T00:12:22.293Z,8.10
2022-11-22T00:13:22.464Z,8.40
2022-11-22T00:14:22.652Z,8.00
2022-11-22T00:15:22.812Z,7.70
2022-11-22T00:16:23.000Z,8.80
2022-11-22T00:17:23.164Z,8.40
2022-11-22T00:18:23.333Z,8.70
2022-11-22T00:19:23.503Z,8.90
2022-11-22T00:20:23.681Z,8.60
2022-11-22T00:21:23.879Z,7.50
2022-11-22T00:22:24.033Z,8.40
2022-11-22T00:23:24.201Z,8.90
2022-11-22T00:24:24.368Z,9.20
2022-11-22T00:25:25.797Z,8.40
2022-11-22T00:26:24.726Z,9.60
2022-11-22T00:27:24.892Z,9.00
2022-11-22T00:28:26.885Z,8.90
2022-11-22T00:29:25.242Z,9.10
2022-11-22T00:30:25.411Z,9.50
2022-11-22T00:31:27.401Z,10.20
2022-11-22T00:32:26.181Z,9.50
2022-11-22T00:33:26.957Z,9.40
2022-11-22T00:34:26.101Z,9.00
2022-11-22T00:35:26.263Z,10.00
2022-11-22T00:36:26.460Z,9.80
2022-11-22T00:37:26.626Z,9.50
2022-11-22T00:38:26.791Z,7.90
2022-11-22T00:39:27.456Z,8.10
2022-11-22T00:40:29.769Z,10.20
2022-11-22T00:41:28.443Z,8.80
2022-11-22T00:42:28.278Z,9.20
2022-11-22T00:43:27.633Z,9.00
2022-11-22T00:44:29.792Z,9.80
2022-11-22T00:45:27.971Z,9.40
2022-11-22T00:46:28.156Z,10.20
2022-11-22T00:47:28.292Z,10.20
2022-11-22T00:48:28.695Z,9.30
2022-11-22T00:49:28.982Z,9.40
2022-11-22T00:50:30.861Z,9.40
2022-11-22T00:51:30.934Z,10.90
2022-11-22T00:52:29.153Z,9.20
2022-11-22T00:53:30.378Z,10.80
2022-11-22T00:54:29.514Z,10.40
2022-11-22T00:55:30.571Z,9.70
2022-11-22T00:56:29.842Z,9.30
2022-11-22T00:57:31.109Z,10.40
2022-11-22T00:58:32.530Z,9.70
2022-11-22T00:59:30.955Z,9.90
2022-11-22T01:00:33.207Z,9.30
2022-11-22T01:01:30.753Z,9.80
2022-11-22T01:02:30.859Z,9.50
2022-11-22T01:03:31.032Z,10.10
2022-11-22T01:04:31.224Z,9.80
2022-11-22T01:05:31.391Z,8.40
2022-11-22T01:06:31.570Z,10.60
2022-11-22T01:07:31.833Z,10.40
2022-11-22T01:08:31.929Z,9.90
2022-11-22T01:09:32.346Z,9.10
2022-11-22T01:10:32.290Z,10.30
2022-11-22T01:11:32.489Z,9.20
2022-11-22T01:12:32.669Z,9.10
2022-11-22T01:13:32.834Z,9.00
2022-11-22T01:14:32.998Z,10.30
2022-11-22T01:15:33.186Z,9.90
2022-11-22T01:16:33.390Z,10.10
2022-11-22T01:17:33.549Z,9.40
2022-11-22T01:18:33.718Z,10.60
2022-11-22T01:19:33.902Z,9.40
2022-11-22T01:20:34.074Z,9.20
2022-11-22T01:21:34.234Z,9.50
2022-11-22T01:22:34.423Z,10.00
2022-11-22T01:23:34.558Z,10.00
2022-11-22T01:24:34.755Z,9.20
2022-11-22T01:25:34.916Z,8.80
2022-11-22T01:26:35.095Z,9.80
2022-11-22T01:27:35.257Z,10.50
2022-11-22T01:28:35.437Z,10.30
2022-11-22T01:29:35.622Z,10.30
2022-11-22T01:30:35.797Z,10.30
2022-11-22T01:31:35.975Z,10.30
2022-11-22T01:32:36.156Z,10.50
2022-11-22T01:33:36.335Z,11.10
2022-11-22T01:34:36.523Z,11.50
2022-11-22T01:35:36.706Z,11.30
2022-11-22T01:36:36.914Z,10.20
2022-11-22T01:37:37.055Z,11.40
2022-11-22T01:38:37.235Z,10.80
2022-11-22T01:39:37.417Z,10.20
2022-11-22T01:40:37.594Z,11.00
2022-11-22T01:41:37.816Z,11.70
2022-11-22T01:42:37.985Z,11.20
2022-11-22T01:43:38.140Z,11.10
2022-11-22T01:44:38.293Z,10.60
2022-11-22T01:45:38.494Z,13.00
2022-11-22T01:46:38.654Z,10.30
2022-11-22T01:47:38.802Z,10.90
2022-11-22T01:48:38.986Z,10.60
2022-11-22T01:49:39.159Z,10.00
2022-11-22T01:50:39.332Z,9.80
2022-11-22T01:51:39.512Z,11.20
2022-11-22T01:52:39.662Z,10.90
2022-11-22T01:53:39.841Z,10.20
2022-11-22T01:54:40.032Z,11.00
2022-11-22T01:55:40.192Z,11.00
2022-11-22T01:56:40.392Z,11.10
2022-11-22T01:57:40.541Z,10.60
2022-11-22T01:58:40.721Z,11.50
2022-11-22T01:59:40.895Z,9.50
2022-11-22T02:00:41.113Z,9.30
2022-11-22T02:01:41.313Z,10.10
2022-11-22T02:02:41.441Z,10.80
2022-11-22T02:03:41.580Z,10.90
2022-11-22T02:04:41.761Z,10.60
2022-11-22T02:05:41.940Z,10.60
2022-11-22T02:06:42.137Z,11.00
2022-11-22T02:07:42.300Z,11.30
2022-11-22T02:08:42.470Z,11.30
2022-11-22T02:09:42.639Z,11.30
2022-11-22T02:10:42.800Z,11.90
2022-11-22T02:11:42.956Z,10.80
2022-11-22T02:12:43.139Z,11.50
2022-11-22T02:13:43.320Z,10.90
2022-11-22T02:14:43.508Z,11.40
2022-11-22T02:15:43.698Z,12.00
2022-11-22T02:16:43.882Z,11.60
2022-11-22T02:17:44.059Z,11.00
2022-11-22T02:18:44.259Z,12.10
2022-11-22T02:19:44.403Z,11.30
2022-11-22T02:20:44.571Z,11.20
2022-11-22T02:21:44.778Z,11.50
2022-11-22T02:22:44.929Z,11.50
2022-11-22T02:23:45.109Z,11.00
2022-11-22T02:24:45.290Z,11.10
2022-11-22T02:25:45.475Z,11.90
2022-11-22T02:26:45.676Z,11.40
2022-11-22T02:27:45.816Z,11.30
2022-11-22T02:28:46.004Z,12.40
2022-11-22T02:29:46.186Z,11.10
2022-11-22T02:30:46.377Z,9.50
2022-11-22T02:31:46.566Z,9.80
2022-11-22T02:32:46.729Z,10.70
2022-11-22T02:33:46.906Z,11.40
2022-11-22T02:34:47.086Z,12.00
2022-11-22T02:35:47.265Z,11.80
2022-11-22T02:36:47.464Z,11.50
2022-11-22T02:37:47.606Z,10.70
2022-11-22T02:38:47.795Z,11.90
2022-11-22T02:39:47.975Z,12.20
2022-11-22T02:40:48.154Z,11.10
2022-11-22T02:41:48.359Z,10.80
2022-11-22T02:42:48.505Z,11.60
2022-11-22T02:43:48.687Z,11.00
2022-11-22T02:44:48.865Z,11.60
2022-11-22T02:45:49.060Z,11.60
2022-11-22T02:46:49.245Z,10.80
2022-11-22T02:47:49.394Z,10.60
2022-11-22T02:48:49.544Z,11.50
2022-11-22T02:49:49.722Z,12.90
2022-11-22T02:50:49.906Z,11.30
2022-11-22T02:51:50.093Z,11.50
2022-11-22T02:52:50.272Z,13.60
2022-11-22T02:53:50.454Z,12.10
2022-11-22T02:54:50.633Z,11.50
2022-11-22T02:55:50.809Z,12.60
2022-11-22T02:56:51.001Z,12.90
2022-11-22T02:57:51.155Z,12.50
2022-11-22T02:58:51.333Z,12.80
2022-11-22T02:59:51.509Z,12.70
2022-11-22T03:00:51.749Z,11.10
2022-11-22T03:01:51.873Z,11.70
2022-11-22T03:02:52.022Z,12.00
2022-11-22T03:03:52.191Z,13.00
2022-11-22T03:04:52.371Z,12.10
2022-11-22T03:05:52.551Z,13.00
2022-11-22T03:06:52.760Z,15.10
2022-11-22T03:07:52.969Z,13.00
2022-11-22T03:08:56.422Z,13.50
2022-11-22T03:09:53.261Z,13.50
2022-11-22T03:10:53.447Z,13.10
2022-11-22T03:11:53.633Z,12.60
2022-11-22T03:12:53.810Z,12.10
2022-11-22T03:13:53.992Z,14.00
2022-11-22T03:14:54.168Z,13.90
2022-11-22T03:15:54.358Z,13.00
2022-11-22T03:16:54.553Z,12.20
2022-11-22T03:17:54.689Z,12.10
2022-11-22T03:18:54.869Z,12.10
2022-11-22T03:19:55.048Z,15.00
2022-11-22T03:20:55.219Z,13.40
2022-11-22T03:21:55.437Z,14.00
2022-11-22T03:22:55.586Z,12.20
2022-11-22T03:23:55.771Z,14.00
2022-11-22T03:24:55.939Z,13.90
2022-11-22T03:25:56.122Z,14.20
2022-11-22T03:26:56.313Z,12.90
2022-11-22T03:27:56.490Z,13.90
2022-11-22T03:28:56.667Z,14.60
2022-11-22T03:29:56.850Z,14.10
2022-11-22T03:30:57.027Z,12.70
2022-11-22T03:31:57.239Z,13.70
2022-11-22T03:32:57.366Z,13.40
2022-11-22T03:33:57.550Z,13.30
2022-11-22T03:34:57.726Z,13.90
2022-11-22T03:35:57.920Z,13.30
2022-11-22T03:36:58.099Z,12.00
2022-11-22T03:37:58.279Z,12.40
2022-11-22T03:38:58.458Z,13.10
2022-11-22T03:39:58.647Z,13.00
2022-11-22T03:40:58.834Z,13.10
2022-11-22T03:41:59.006Z,13.60
2022-11-22T03:42:59.145Z,13.20
2022-11-22T03:43:59.325Z,13.10
2022-11-22T03:44:59.505Z,14.40
2022-11-22T03:45:59.684Z,13.70
2022-11-22T03:46:59.867Z,13.60
2022-11-22T03:48:00.064Z,13.60
2022-11-22T03:49:00.228Z,13.20
2022-11-22T03:50:00.411Z,14.00
2022-11-22T03:51:00.583Z,14.90
2022-11-22T03:52:00.767Z,13.40
2022-11-22T03:53:00.945Z,12.50
2022-11-22T03:54:01.123Z,13.90
2022-11-22T03:55:01.315Z,12.40
2022-11-22T03:56:01.504Z,14.60
2022-11-22T03:57:01.702Z,13.60
2022-11-22T03:58:01.853Z,14.10
2022-11-22T03:59:02.028Z,13.90
2022-11-22T04:00:02.205Z,12.50
2022-11-22T04:01:02.450Z,13.30
2022-11-22T04:02:02.628Z,13.20
2022-11-22T04:03:02.717Z,13.30
2022-11-22T04:04:02.897Z,13.00
2022-11-22T04:05:03.071Z,12.90
2022-11-22T04:06:03.258Z,14.90
2022-11-22T04:07:03.490Z,13.50
2022-11-22T04:08:03.595Z,12.90
2022-11-22T04:09:03.812Z,12.70
2022-11-22T04:10:03.969Z,13.50
2022-11-22T04:11:04.142Z,12.80
2022-11-22T04:12:04.352Z,13.80
2022-11-22T04:13:04.493Z,11.90
2022-11-22T04:14:04.679Z,13.60
2022-11-22T04:15:04.862Z,14.70
2022-11-22T04:16:05.030Z,14.30
2022-11-22T04:17:05.210Z,14.50
2022-11-22T04:18:05.400Z,12.80
2022-11-22T04:19:05.576Z,13.20
2022-11-22T04:20:05.757Z,13.80
2022-11-22T04:21:05.931Z,13.30
2022-11-22T04:22:06.129Z,13.20
2022-11-22T04:23:06.279Z,13.80
2022-11-22T04:24:06.460Z,13.50
2022-11-22T04:25:06.647Z,13.90
2022-11-22T04:26:06.835Z,13.60
2022-11-22T04:27:07.022Z,12.70
2022-11-22T04:28:07.210Z,13.80
2022-11-22T04:29:09.998Z,13.60
2022-11-22T04:30:07.579Z,13.80
2022-11-22T04:31:07.749Z,14.60
2022-11-22T04:32:07.973Z,13.80
2022-11-22T04:33:08.120Z,13.10
2022-11-22T04:34:08.287Z,14.10
2022-11-22T04:35:08.477Z,14.50
2022-11-22T04:36:13.102Z,14.00
2022-11-22T04:37:08.836Z,13.40
2022-11-22T04:38:08.991Z,13.40
2022-11-22T04:39:09.167Z,14.90
2022-11-22T04:40:09.345Z,14.50
2022-11-22T04:41:09.530Z,13.70
2022-11-22T04:42:09.726Z,15.70
2022-11-22T04:43:09.875Z,14.30
2022-11-22T04:44:10.063Z,13.90
2022-11-22T04:45:10.243Z,13.90
2022-11-22T04:46:10.423Z,15.70
2022-11-22T04:47:10.623Z,13.00
2022-11-22T04:48:10.776Z,13.10
2022-11-22T04:49:10.953Z,14.20
2022-11-22T04:50:11.137Z,15.70
2022-11-22T04:51:11.315Z,14.90
2022-11-22T04:52:11.540Z,13.60
2022-11-22T04:53:11.683Z,15.10
2022-11-22T04:54:11.871Z,15.70
2022-11-22T04:55:12.043Z,15.70
2022-11-22T04:56:12.231Z,14.40
2022-11-22T04:57:12.422Z,14.50
2022-11-22T04:58:12.567Z,14.70
2022-11-22T04:59:12.745Z,13.90
2022-11-22T05:00:12.932Z,16.70
2022-11-22T05:01:13.159Z,15.60
2022-11-22T05:02:13.335Z,15.40
2022-11-22T05:03:13.472Z,12.90
2022-11-22T05:04:13.661Z,12.60
2022-11-22T05:05:13.842Z,15.30
2022-11-22T05:06:14.032Z,14.60
2022-11-22T05:07:14.256Z,14.20
2022-11-22T05:08:14.381Z,13.40
2022-11-22T05:09:14.561Z,15.10
2022-11-22T05:10:14.741Z,15.20
2022-11-22T05:11:14.956Z,14.10
2022-11-22T05:12:15.099Z,15.40
2022-11-22T05:13:15.281Z,15.30
2022-11-22T05:14:15.461Z,15.30
2022-11-22T05:15:15.660Z,14.20
2022-11-22T05:16:15.821Z,15.80
2022-11-22T05:17:16.009Z,15.50
2022-11-22T05:18:16.192Z,15.70
2022-11-22T05:19:16.370Z,15.10
2022-11-22T05:20:16.557Z,16.30
2022-11-22T05:21:16.730Z,15.30
2022-11-22T05:22:16.927Z,16.10
2022-11-22T05:23:17.099Z,17.40
2022-11-22T05:24:17.279Z,15.60
2022-11-22T05:25:21.305Z,18.20
2022-11-22T05:26:18.638Z,14.30
2022-11-22T05:27:17.823Z,15.80
2022-11-22T05:28:17.989Z,16.20
2022-11-22T05:29:18.157Z,14.80
2022-11-22T05:30:18.348Z,17.50
2022-11-22T05:31:18.517Z,17.50
2022-11-22T05:32:18.711Z,16.80
2022-11-22T05:33:18.899Z,18.20
2022-11-22T05:34:19.088Z,18.30
2022-11-22T05:35:19.257Z,17.90
2022-11-22T05:36:19.438Z,18.20
2022-11-22T05:37:19.628Z,18.30
2022-11-22T05:38:19.824Z,18.50
2022-11-22T05:39:19.967Z,20.20
2022-11-22T05:40:20.157Z,18.50
2022-11-22T05:41:20.332Z,17.40
2022-11-22T05:42:20.533Z,17.90
2022-11-22T05:43:20.706Z,18.70
2022-11-22T05:44:20.857Z,15.70
2022-11-22T05:45:21.039Z,17.00
2022-11-22T05:46:24.601Z,17.20
2022-11-22T05:47:21.396Z,17.70
2022-11-22T05:48:21.576Z,17.90
2022-11-22T05:49:21.757Z,18.10
2022-11-22T05:50:21.934Z,17.70
2022-11-22T05:51:22.115Z,18.10
2022-11-22T05:52:22.325Z,18.80
2022-11-22T05:53:22.464Z,18.90
2022-11-22T05:54:22.674Z,18.90
2022-11-22T05:55:22.826Z,19.00
2022-11-22T05:56:23.029Z,19.90
2022-11-22T05:57:23.156Z,20.10
2022-11-22T05:58:23.344Z,18.10
2022-11-22T05:59:23.514Z,19.00
2022-11-22T06:00:23.694Z,19.20
2022-11-22T06:01:23.892Z,18.70
2022-11-22T06:02:24.153Z,17.70
2022-11-22T06:03:24.235Z,17.60
2022-11-22T06:04:24.413Z,17.10
2022-11-22T06:05:24.592Z,19.90
2022-11-22T06:06:24.782Z,18.60
2022-11-22T06:07:25.039Z,19.80
2022-11-22T06:08:25.162Z,18.20
2022-11-22T06:09:25.334Z,19.30
2022-11-22T06:10:25.511Z,19.00
2022-11-22T06:11:25.701Z,18.50
2022-11-22T06:12:25.931Z,19.00
2022-11-22T06:13:26.063Z,20.30
2022-11-22T06:14:26.251Z,19.10
2022-11-22T06:15:26.432Z,21.20
2022-11-22T06:16:26.612Z,20.20
2022-11-22T06:17:26.792Z,18.50
2022-11-22T06:18:26.989Z,22.00
2022-11-22T06:19:27.283Z,18.30
2022-11-22T06:20:27.334Z,21.40
2022-11-22T06:21:27.515Z,20.40
2022-11-22T06:22:27.712Z,19.70
2022-11-22T06:23:27.860Z,19.50
2022-11-22T06:24:28.048Z,20.30
2022-11-22T06:25:28.199Z,20.50
2022-11-22T06:26:28.439Z,19.00
2022-11-22T06:27:28.589Z,20.20
2022-11-22T06:28:28.779Z,18.50
2022-11-22T06:29:29.344Z,19.60
2022-11-22T06:30:29.131Z,17.40
2022-11-22T06:31:29.289Z,17.50
2022-11-22T06:32:29.458Z,20.70
2022-11-22T06:33:29.628Z,19.30
2022-11-22T06:34:29.811Z,19.70
2022-11-22T06:35:29.966Z,21.10
2022-11-22T06:36:30.135Z,18.80
2022-11-22T06:37:30.318Z,18.60
2022-11-22T06:38:30.515Z,20.20
2022-11-22T06:39:30.997Z,19.40
2022-11-22T06:40:30.849Z,20.30
2022-11-22T06:41:31.018Z,19.90
2022-11-22T06:42:31.196Z,19.70
2022-11-22T06:43:31.371Z,20.00
2022-11-22T06:44:31.528Z,20.20
2022-11-22T06:45:31.694Z,20.30
2022-11-22T06:46:31.885Z,19.50
2022-11-22T06:47:32.075Z,20.00
2022-11-22T06:48:32.206Z,19.80
2022-11-22T06:49:32.724Z,20.40
2022-11-22T06:50:32.536Z,21.00
2022-11-22T06:51:32.707Z,20.30
2022-11-22T06:52:32.886Z,20.10
2022-11-22T06:53:46.709Z,20.50
2022-11-22T06:54:34.223Z,21.90
2022-11-22T06:55:50.203Z,20.80
2022-11-22T06:56:34.612Z,20.50
2022-11-22T06:57:33.793Z,21.00
2022-11-22T06:58:33.895Z,20.60
2022-11-22T06:59:34.084Z,19.50
2022-11-22T07:00:34.270Z,20.10
2022-11-22T07:01:34.716Z,20.60
2022-11-22T07:02:34.624Z,21.80
2022-11-22T07:03:34.782Z,21.00
2022-11-22T07:04:34.993Z,20.10
2022-11-22T07:05:35.124Z,20.40
2022-11-22T07:06:35.307Z,20.80
2022-11-22T07:07:35.531Z,20.10
2022-11-22T07:08:35.641Z,20.30
2022-11-22T07:09:35.801Z,20.90
2022-11-22T07:10:35.991Z,20.40
2022-11-22T07:11:36.201Z,20.20
2022-11-22T07:12:36.332Z,22.40
2022-11-22T07:13:36.504Z,21.00
2022-11-22T07:14:36.641Z,20.00
2022-11-22T07:15:36.798Z,21.20
2022-11-22T07:16:36.962Z,21.40
2022-11-22T07:17:37.172Z,20.50
2022-11-22T07:18:37.323Z,19.90
2022-11-22T07:19:37.491Z,20.00
2022-11-22T07:20:37.673Z,18.60
2022-11-22T07:21:37.869Z,20.90
2022-11-22T07:22:38.009Z,20.80
2022-11-22T07:23:38.150Z,19.40
2022-11-22T07:24:38.329Z,18.20
2022-11-22T07:25:38.497Z,21.00
2022-11-22T07:26:38.670Z,19.50
2022-11-22T07:27:38.886Z,20.00
2022-11-22T07:28:39.002Z,20.10
2022-11-22T07:29:39.178Z,19.80
2022-11-22T07:30:43.776Z,18.10
2022-11-22T07:31:40.508Z,19.70
2022-11-22T07:32:39.708Z,22.50
2022-11-22T07:33:39.905Z,21.10
2022-11-22T07:34:40.039Z,19.60
2022-11-22T07:35:40.230Z,21.20
2022-11-22T07:36:40.407Z,20.60
2022-11-22T07:37:40.707Z,20.30
2022-11-22T07:38:40.766Z,19.60
2022-11-22T07:39:40.947Z,20.30
2022-11-22T07:40:41.128Z,19.30
2022-11-22T07:41:41.317Z,19.30
2022-11-22T07:42:41.506Z,19.10
2022-11-22T07:43:41.694Z,19.70
2022-11-22T07:44:41.854Z,19.80
2022-11-22T07:45:42.038Z,19.90
2022-11-22T07:46:42.216Z,18.10
2022-11-22T07:47:42.425Z,16.50
2022-11-22T07:48:42.547Z,19.80
2022-11-22T07:49:42.716Z,18.90
2022-11-22T07:50:42.888Z,17.60
2022-11-22T07:51:43.073Z,20.00
2022-11-22T07:52:43.235Z,17.60
2022-11-22T07:53:43.422Z,17.70
2022-11-22T07:54:43.584Z,17.10
2022-11-22T07:55:43.758Z,18.00
2022-11-22T07:56:43.925Z,18.50
2022-11-22T07:57:44.135Z,18.00
2022-11-22T07:58:44.277Z,18.60
2022-11-22T07:59:44.445Z,18.90
2022-11-22T08:00:44.617Z,18.00
2022-11-22T08:01:44.823Z,17.40
2022-11-22T08:02:45.018Z,18.50
2022-11-22T08:03:45.187Z,18.20
2022-11-22T08:04:45.305Z,17.90
2022-11-22T08:05:45.503Z,20.80
2022-11-22T08:06:45.702Z,18.10
2022-11-22T08:07:45.898Z,18.40
2022-11-22T08:08:46.000Z,17.30
2022-11-22T08:09:46.173Z,18.10
2022-11-22T08:10:46.362Z,19.30
2022-11-22T08:11:46.531Z,18.40
2022-11-22T08:12:46.733Z,17.70
2022-11-22T08:13:46.914Z,16.40
2022-11-22T08:14:47.071Z,17.90
2022-11-22T08:15:47.243Z,17.40
2022-11-22T08:16:47.411Z,18.30
2022-11-22T08:17:47.628Z,16.80
2022-11-22T08:18:47.758Z,17.90
2022-11-22T08:19:47.930Z,18.40
2022-11-22T08:20:48.099Z,19.00
2022-11-22T08:21:48.272Z,17.80
2022-11-22T08:22:48.452Z,17.00
2022-11-22T08:23:48.651Z,17.90
2022-11-22T08:24:48.801Z,18.10
2022-11-22T08:25:48.971Z,18.30
2022-11-22T08:26:49.200Z,19.70
2022-11-22T08:27:49.342Z,17.80
2022-11-22T08:28:49.519Z,17.50
2022-11-22T08:29:49.703Z,17.80
2022-11-22T08:30:49.858Z,16.80
2022-11-22T08:31:50.029Z,18.10
2022-11-22T08:32:50.210Z,18.10
2022-11-22T08:33:50.399Z,18.30
2022-11-22T08:34:50.570Z,18.20
2022-11-22T08:35:50.789Z,19.20
2022-11-22T08:36:50.916Z,18.90
2022-11-22T08:37:51.108Z,18.00
2022-11-22T08:38:51.268Z,19.20
2022-11-22T08:39:51.438Z,19.00
2022-11-22T08:40:51.635Z,18.50
2022-11-22T08:41:51.787Z,17.80
2022-11-22T08:42:51.975Z,18.10
2022-11-22T08:43:52.147Z,18.70
2022-11-22T08:44:52.320Z,19.50
2022-11-22T08:45:52.487Z,18.30
2022-11-22T08:46:52.666Z,19.00
2022-11-22T08:47:52.860Z,18.70
2022-11-22T08:48:53.026Z,17.70
2022-11-22T08:49:53.219Z,20.50
2022-11-22T08:50:53.396Z,17.70
2022-11-22T08:51:53.554Z,17.20
2022-11-22T08:52:53.748Z,18.30
2022-11-22T08:53:53.935Z,19.20
2022-11-22T08:54:54.097Z,19.60
2022-11-22T08:55:54.303Z,18.30
2022-11-22T08:56:54.446Z,16.80
2022-11-22T08:57:54.635Z,17.70
2022-11-22T08:58:54.826Z,17.60
2022-11-22T08:59:54.993Z,20.40
2022-11-22T09:00:55.170Z,18.00
2022-11-22T09:01:55.412Z,20.10
2022-11-22T09:02:55.523Z,19.50
2022-11-22T09:03:55.692Z,19.30
2022-11-22T09:04:55.872Z,18.70
2022-11-22T09:09:15.587Z,16.70
2022-11-22T09:09:57.764Z,17.90
2022-11-22T09:10:56.948Z,18.00
2022-11-22T09:11:57.075Z,16.90
2022-11-22T09:12:57.263Z,17.80
2022-11-22T09:13:57.458Z,17.70
2022-11-22T09:14:57.624Z,18.70
2022-11-22T09:15:57.801Z,17.30
2022-11-22T09:16:57.982Z,16.90
2022-11-22T09:17:58.227Z,16.00
2022-11-22T09:18:58.333Z,17.60
2022-11-22T09:19:58.511Z,15.60
2022-11-22T09:20:58.682Z,17.40
2022-11-22T09:21:58.877Z,16.50
2022-11-22T09:22:59.052Z,18.30
2022-11-22T09:23:59.381Z,16.90
2022-11-22T09:24:59.414Z,17.80
2022-11-22T09:25:59.606Z,16.30
2022-11-22T09:26:59.729Z,16.90
2022-11-22T09:27:59.912Z,16.40
2022-11-22T09:29:00.084Z,17.20
2022-11-22T09:30:00.263Z,15.90
2022-11-22T09:31:00.420Z,16.50
2022-11-22T09:32:00.675Z,16.80
2022-11-22T09:33:00.783Z,17.70
2022-11-22T09:34:01.056Z,17.70
2022-11-22T09:35:01.132Z,17.40
2022-11-22T09:36:01.304Z,16.10
2022-11-22T09:37:01.452Z,15.70
2022-11-22T09:38:01.654Z,16.40
2022-11-22T09:39:01.824Z,15.40
2022-11-22T09:40:02.013Z,14.90
2022-11-22T09:41:02.222Z,14.70
2022-11-22T09:42:02.393Z,15.60
2022-11-22T09:43:02.521Z,15.80
2022-11-22T09:44:02.703Z,14.80
2022-11-22T09:45:02.886Z,15.70
2022-11-22T09:46:03.050Z,15.60
2022-11-22T09:47:03.277Z,17.00
2022-11-22T09:48:09.537Z,16.00
2022-11-22T09:49:04.580Z,16.70
2022-11-22T09:50:03.754Z,15.20
2022-11-22T09:51:03.922Z,14.10
2022-11-22T09:52:04.107Z,16.50
2022-11-22T09:53:04.296Z,17.30
2022-11-22T09:54:04.439Z,18.90
2022-11-22T09:55:04.632Z,16.40
2022-11-22T09:56:04.808Z,14.60
2022-11-22T09:57:04.957Z,15.20
2022-11-22T09:58:05.156Z,16.70
2022-11-22T09:59:05.311Z,14.70
2022-11-22T10:00:05.512Z,14.10
2022-11-22T10:01:05.738Z,17.50
2022-11-22T10:02:17.479Z,16.40
2022-11-22T10:03:07.046Z,14.80
2022-11-22T10:04:06.188Z,15.40
2022-11-22T10:05:06.368Z,15.40
2022-11-22T10:06:06.541Z,15.80
2022-11-22T10:07:06.745Z,16.20
2022-11-22T10:08:06.907Z,16.50
2022-11-22T10:09:07.086Z,15.20
2022-11-22T10:10:07.281Z,16.70
2022-11-22T10:11:07.448Z,15.60
2022-11-22T10:12:07.606Z,14.60
2022-11-22T10:13:07.786Z,16.30
2022-11-22T10:14:07.984Z,17.10
2022-11-22T10:15:08.167Z,14.50
2022-11-22T10:16:08.351Z,15.00
2022-11-22T10:17:08.486Z,15.20
2022-11-22T10:18:08.687Z,16.50
2022-11-22T10:19:08.858Z,17.20
2022-11-22T10:20:09.027Z,14.40
2022-11-22T10:21:09.211Z,15.60
2022-11-22T10:22:09.376Z,15.90
2022-11-22T10:23:09.582Z,16.90
2022-11-22T10:24:09.747Z,15.50
2022-11-22T10:25:09.914Z,16.50
2022-11-22T10:26:10.085Z,16.30
2022-11-22T10:27:10.269Z,16.40
2022-11-22T10:28:10.438Z,15.80
2022-11-22T10:29:10.598Z,15.50
2022-11-22T10:30:10.774Z,16.00
2022-11-22T10:31:10.961Z,16.40
2022-11-22T10:32:11.124Z,16.20
2022-11-22T10:33:11.296Z,14.60
2022-11-22T10:34:11.475Z,15.80
2022-11-22T10:35:11.675Z,16.00
2022-11-22T10:36:11.835Z,15.20
2022-11-22T10:37:12.003Z,14.80
2022-11-22T10:38:13.144Z,15.90
2022-11-22T10:39:12.353Z,15.10
2022-11-22T10:40:12.523Z,14.90
2022-11-22T10:41:12.701Z,17.10
2022-11-22T10:42:12.874Z,16.40
2022-11-22T10:43:13.044Z,15.00
2022-11-22T10:44:13.223Z,15.30
2022-11-22T10:45:13.393Z,17.20
2022-11-22T10:46:13.582Z,14.90
2022-11-22T10:47:13.757Z,17.50
2022-11-22T10:48:13.941Z,17.20
2022-11-22T10:49:14.114Z,16.30
2022-11-22T10:50:14.287Z,16.30
2022-11-22T10:51:14.474Z,16.40
2022-11-22T10:52:14.652Z,16.90
2022-11-22T10:53:14.868Z,16.00
2022-11-22T10:54:15.011Z,16.00
2022-11-22T10:55:15.171Z,15.00
2022-11-22T10:56:15.352Z,15.30
2022-11-22T10:57:15.553Z,15.70
2022-11-22T10:58:15.723Z,15.90
2022-11-22T10:59:15.889Z,16.30
2022-11-22T11:00:16.131Z,16.20
2022-11-22T11:01:16.280Z,14.60
2022-11-22T11:02:16.461Z,16.80
2022-11-22T11:03:16.611Z,15.70
2022-11-22T11:04:18.000Z,17.00
2022-11-22T11:05:16.983Z,17.10
2022-11-22T11:06:33.284Z,15.60
2022-11-22T11:07:18.334Z,16.60
2022-11-22T11:08:39.586Z,15.60
2022-11-22T11:10:29.302Z,15.80
2022-11-22T11:11:18.972Z,17.00
2022-11-22T11:12:18.152Z,16.00
2022-11-22T11:13:18.322Z,16.40
2022-11-22T11:14:18.539Z,16.20
2022-11-22T11:15:18.688Z,15.50
2022-11-22T11:16:18.848Z,16.30
2022-11-22T11:17:19.018Z,15.70
2022-11-22T11:18:19.227Z,15.90
2022-11-22T11:19:19.361Z,14.70
2022-11-22T11:20:19.537Z,15.20
2022-11-22T11:21:19.710Z,16.30
2022-11-22T11:22:36.034Z,16.70
2022-11-22T11:23:21.099Z,17.40
2022-11-22T11:24:20.228Z,14.80
2022-11-22T11:25:20.418Z,15.50
2022-11-22T11:26:20.579Z,16.30
2022-11-22T11:27:20.747Z,16.20
2022-11-22T11:28:20.969Z,15.50
2022-11-22T11:29:21.083Z,16.90
2022-11-22T11:30:21.298Z,16.70
2022-11-22T11:31:21.427Z,15.80
2022-11-22T11:32:21.599Z,16.20
2022-11-22T11:33:21.784Z,16.00
2022-11-22T11:34:21.947Z,17.10
2022-11-22T11:35:22.129Z,15.60
2022-11-22T11:36:22.315Z,15.40
2022-11-22T11:37:22.475Z,17.00
2022-11-22T11:38:22.646Z,15.50
2022-11-22T11:39:22.816Z,15.20
2022-11-22T11:40:22.996Z,16.00
2022-11-22T11:41:23.169Z,13.60
2022-11-22T11:42:24.331Z,15.80
2022-11-22T11:43:23.554Z,15.60
2022-11-22T11:44:23.717Z,16.20
2022-11-22T11:45:24.881Z,16.20
2022-11-22T11:46:24.046Z,16.00
2022-11-22T11:47:24.242Z,16.00
2022-11-22T11:48:24.442Z,14.80
2022-11-22T11:49:24.602Z,16.90
2022-11-22T11:50:25.163Z,15.90
2022-11-22T11:51:24.946Z,15.30
2022-11-22T11:52:25.134Z,14.90
2022-11-22T11:53:25.332Z,15.60
2022-11-22T11:54:25.484Z,15.30
2022-11-22T11:55:25.660Z,15.20
2022-11-22T11:56:25.813Z,16.60
2022-11-22T11:57:25.973Z,14.60
2022-11-22T11:58:26.293Z,16.00
2022-11-22T11:59:26.477Z,14.40
2022-11-22T12:00:26.504Z,14.50
2022-11-22T12:01:26.736Z,15.00
2022-11-22T12:02:26.970Z,15.30
2022-11-22T12:03:27.003Z,15.50
2022-11-22T12:04:27.216Z,15.20
2022-11-22T12:05:27.360Z,15.50
2022-11-22T12:06:27.533Z,15.20
2022-11-22T12:07:27.759Z,14.50
2022-11-22T12:08:27.892Z,15.40
2022-11-22T12:09:28.114Z,14.90
2022-11-22T12:10:28.232Z,14.80
2022-11-22T12:11:28.417Z,15.40
2022-11-22T12:12:28.584Z,14.00
2022-11-22T12:13:28.759Z,14.60
2022-11-22T12:14:48.875Z,14.80
2022-11-22T12:15:30.124Z,15.20
2022-11-22T12:16:29.373Z,15.90
2022-11-22T12:17:29.471Z,15.60
2022-11-22T12:18:29.663Z,15.70
2022-11-22T12:19:29.883Z,14.70
2022-11-22T12:20:30.001Z,15.00
2022-11-22T12:21:30.203Z,16.10
2022-11-22T12:22:48.918Z,16.30
2022-11-22T12:23:31.561Z,16.20
2022-11-22T12:25:09.337Z,15.60
2022-11-22T12:25:33.193Z,16.00
2022-11-22T12:26:31.066Z,15.90
2022-11-22T12:27:31.247Z,15.10
2022-11-22T12:28:31.410Z,15.80
2022-11-22T12:29:31.611Z,16.40
2022-11-22T12:30:31.731Z,15.90
2022-11-22T12:31:31.910Z,14.80
2022-11-22T12:32:32.092Z,16.30
2022-11-22T12:33:32.274Z,15.20
2022-11-22T12:34:32.851Z,15.00
2022-11-22T12:35:32.620Z,15.00
2022-11-22T12:36:33.191Z,16.20
2022-11-22T12:37:32.961Z,14.50
2022-11-22T12:38:33.131Z,16.00
2022-11-22T12:39:33.319Z,16.80
2022-11-22T12:40:33.490Z,16.20
2022-11-22T12:41:33.650Z,17.40
2022-11-22T12:42:33.830Z,15.30
2022-11-22T12:43:33.998Z,15.50
2022-11-22T12:44:34.181Z,14.70
2022-11-22T12:45:34.348Z,14.70
2022-11-22T12:46:39.590Z,15.90
2022-11-22T12:47:35.708Z,16.30
2022-11-22T12:48:34.857Z,16.20
2022-11-22T12:49:35.045Z,15.80
2022-11-22T12:50:35.199Z,16.00
2022-11-22T12:51:35.368Z,15.80
2022-11-22T12:52:35.539Z,15.70
2022-11-22T12:53:35.717Z,16.80
2022-11-22T12:54:35.906Z,15.30
2022-11-22T12:55:36.079Z,16.30
2022-11-22T12:56:36.245Z,15.80
2022-11-22T12:57:36.407Z,16.00
2022-11-22T12:58:36.579Z,16.30
2022-11-22T12:59:36.786Z,15.80
2022-11-22T13:00:36.909Z,16.00
2022-11-22T13:01:37.164Z,15.90